KSBN

South Bend International Airport

South Bend, Indiana, USA
METAR KSBN 231454Z 00000KT 10SM CLR 20/13 A3021 RMK AO2 SLP231 T02000128 51010
Observed Flight Rules
May-23 @ 14:54 UTC (13 minutes ago) Visual Flight Rules
Visibility Clouds
10 miles
  • Clear skies
Temperatures Readings
Current 20°C / 68°F
Dewpoint 13°C / 55°F
Humidity 64%
Altimeter 30.21" Hg
Pressure 1023.1 hPa
Elevation 237
METAR KSBN 231454Z 00000KT 10SM CLR 20/13 A3021 RMK AO2 SLP231 T02000128 51010
Observed Flight Rules
May-23 @ 14:54 UTC
(13 minutes ago)
VFR
Clouds
  • Clear skies
Temperature Dewpoint
20°C / 68°F 13°C / 55°F
Humidity Altimeter Pressure
64% 30.21" Hg 1023.1 hPa